sensor_id;sensor_type;location;lat;lon;timestamp;P1;durP1;ratioP1;P2;durP2;ratioP2
18267;SDS011;9260;49.998;19.880;2023-04-23T00:03:17;231.27;;;96.50;;
18267;SDS011;9260;49.998;19.880;2023-04-23T00:13:23;230.23;;;96.50;;
18267;SDS011;9260;49.998;19.880;2023-04-23T00:23:28;233.83;;;98.20;;
18267;SDS011;9260;49.998;19.880;2023-04-23T00:33:31;228.50;;;95.97;;
18267;SDS011;9260;49.998;19.880;2023-04-23T00:43:36;229.47;;;95.97;;
18267;SDS011;9260;49.998;19.880;2023-04-23T00:53:40;234.60;;;97.50;;
18267;SDS011;9260;49.998;19.880;2023-04-23T01:03:44;236.13;;;99.20;;
18267;SDS011;9260;49.998;19.880;2023-04-23T01:13:50;237.53;;;99.00;;
18267;SDS011;9260;49.998;19.880;2023-04-23T01:23:55;225.17;;;96.07;;
18267;SDS011;9260;49.998;19.880;2023-04-23T01:33:59;227.60;;;96.33;;
18267;SDS011;9260;49.998;19.880;2023-04-23T01:44:04;233.63;;;96.10;;
18267;SDS011;9260;49.998;19.880;2023-04-23T01:54:08;231.33;;;97.50;;
18267;SDS011;9260;49.998;19.880;2023-04-23T02:04:13;242.60;;;101.87;;
18267;SDS011;9260;49.998;19.880;2023-04-23T02:14:18;236.77;;;98.03;;
18267;SDS011;9260;49.998;19.880;2023-04-23T02:24:23;226.60;;;95.50;;
18267;SDS011;9260;49.998;19.880;2023-04-23T02:34:26;223.67;;;91.20;;
18267;SDS011;9260;49.998;19.880;2023-04-23T02:44:31;216.97;;;89.43;;
18267;SDS011;9260;49.998;19.880;2023-04-23T02:54:34;222.70;;;91.60;;
18267;SDS011;9260;49.998;19.880;2023-04-23T03:04:40;216.43;;;89.03;;
18267;SDS011;9260;49.998;19.880;2023-04-23T03:14:44;219.97;;;91.57;;
18267;SDS011;9260;49.998;19.880;2023-04-23T03:24:49;217.43;;;89.37;;
18267;SDS011;9260;49.998;19.880;2023-04-23T03:34:54;216.43;;;89.27;;
18267;SDS011;9260;49.998;19.880;2023-04-23T03:44:59;214.57;;;89.50;;
18267;SDS011;9260;49.998;19.880;2023-04-23T03:55:03;216.53;;;88.67;;
18267;SDS011;9260;49.998;19.880;2023-04-23T04:05:16;215.57;;;88.47;;
18267;SDS011;9260;49.998;19.880;2023-04-23T04:15:19;220.90;;;88.70;;
18267;SDS011;9260;49.998;19.880;2023-04-23T04:25:24;225.63;;;92.67;;
18267;SDS011;9260;49.998;19.880;2023-04-23T04:35:29;225.60;;;92.10;;
18267;SDS011;9260;49.998;19.880;2023-04-23T04:45:34;228.33;;;93.30;;
18267;SDS011;9260;49.998;19.880;2023-04-23T04:55:37;221.23;;;91.80;;
18267;SDS011;9260;49.998;19.880;2023-04-23T05:05:42;214.27;;;91.97;;
18267;SDS011;9260;49.998;19.880;2023-04-23T05:15:46;219.17;;;89.57;;
18267;SDS011;9260;49.998;19.880;2023-04-23T05:25:51;228.33;;;95.17;;
18267;SDS011;9260;49.998;19.880;2023-04-23T05:35:56;222.03;;;93.17;;
18267;SDS011;9260;49.998;19.880;2023-04-23T05:46:01;231.47;;;98.07;;
18267;SDS011;9260;49.998;19.880;2023-04-23T05:56:05;239.13;;;103.27;;
18267;SDS011;9260;49.998;19.880;2023-04-23T06:06:10;236.30;;;100.73;;
18267;SDS011;9260;49.998;19.880;2023-04-23T06:16:13;236.33;;;100.67;;
18267;SDS011;9260;49.998;19.880;2023-04-23T06:26:18;228.53;;;100.30;;
18267;SDS011;9260;49.998;19.880;2023-04-23T06:36:24;242.80;;;111.63;;
18267;SDS011;9260;49.998;19.880;2023-04-23T06:46:29;233.27;;;108.57;;
18267;SDS011;9260;49.998;19.880;2023-04-23T06:56:32;234.80;;;108.73;;
18267;SDS011;9260;49.998;19.880;2023-04-23T07:06:37;226.63;;;106.93;;
18267;SDS011;9260;49.998;19.880;2023-04-23T07:16:40;219.67;;;105.90;;
18267;SDS011;9260;49.998;19.880;2023-04-23T07:26:45;227.03;;;116.30;;
18267;SDS011;9260;49.998;19.880;2023-04-23T07:36:48;225.70;;;119.20;;
18267;SDS011;9260;49.998;19.880;2023-04-23T07:46:54;219.55;;;121.38;;
18267;SDS011;9260;49.998;19.880;2023-04-23T07:56:57;219.50;;;121.25;;
18267;SDS011;9260;49.998;19.880;2023-04-23T08:07:02;211.43;;;120.75;;
18267;SDS011;9260;49.998;19.880;2023-04-23T08:17:06;210.55;;;124.35;;
18267;SDS011;9260;49.998;19.880;2023-04-23T08:27:11;205.77;;;127.78;;
18267;SDS011;9260;49.998;19.880;2023-04-23T08:37:14;206.85;;;130.30;;
18267;SDS011;9260;49.998;19.880;2023-04-23T08:47:32;204.25;;;135.82;;
18267;SDS011;9260;49.998;19.880;2023-04-23T08:57:36;199.35;;;135.10;;
18267;SDS011;9260;49.998;19.880;2023-04-23T09:07:43;203.60;;;136.77;;
18267;SDS011;9260;49.998;19.880;2023-04-23T09:17:47;202.68;;;133.95;;
18267;SDS011;9260;49.998;19.880;2023-04-23T09:27:52;202.68;;;135.82;;
18267;SDS011;9260;49.998;19.880;2023-04-23T09:37:56;201.38;;;139.57;;
18267;SDS011;9260;49.998;19.880;2023-04-23T09:48:01;199.18;;;139.13;;
18267;SDS011;9260;49.998;19.880;2023-04-23T09:58:05;186.15;;;128.07;;
18267;SDS011;9260;49.998;19.880;2023-04-23T10:08:14;194.32;;;139.93;;
18267;SDS011;9260;49.998;19.880;2023-04-23T10:18:18;185.35;;;134.18;;
18267;SDS011;9260;49.998;19.880;2023-04-23T10:28:23;189.10;;;140.55;;
18267;SDS011;9260;49.998;19.880;2023-04-23T10:38:32;186.80;;;137.57;;
18267;SDS011;9260;49.998;19.880;2023-04-23T10:49:03;193.75;;;151.57;;
18267;SDS011;9260;49.998;19.880;2023-04-23T10:59:16;187.73;;;154.75;;
18267;SDS011;9260;49.998;19.880;2023-04-23T11:09:29;192.43;;;158.90;;
18267;SDS011;9260;49.998;19.880;2023-04-23T11:30:13;193.73;;;147.18;;
18267;SDS011;9260;49.998;19.880;2023-04-23T11:40:20;189.85;;;143.05;;
18267;SDS011;9260;49.998;19.880;2023-04-23T11:50:26;182.80;;;146.23;;
18267;SDS011;9260;49.998;19.880;2023-04-23T12:00:34;190.55;;;153.70;;
18267;SDS011;9260;49.998;19.880;2023-04-23T12:10:45;189.10;;;148.07;;
18267;SDS011;9260;49.998;19.880;2023-04-23T12:20:51;184.88;;;147.18;;
18267;SDS011;9260;49.998;19.880;2023-04-23T12:30:59;184.95;;;138.13;;
18267;SDS011;9260;49.998;19.880;2023-04-23T12:41:04;203.80;;;144.30;;
18267;SDS011;9260;49.998;19.880;2023-04-23T12:51:08;193.40;;;136.75;;
18267;SDS011;9260;49.998;19.880;2023-04-23T13:01:12;188.27;;;138.45;;
18267;SDS011;9260;49.998;19.880;2023-04-23T13:11:17;201.45;;;154.70;;
18267;SDS011;9260;49.998;19.880;2023-04-23T13:21:21;203.02;;;134.95;;
18267;SDS011;9260;49.998;19.880;2023-04-23T13:31:29;216.10;;;132.77;;
18267;SDS011;9260;49.998;19.880;2023-04-23T13:41:33;216.60;;;129.30;;
18267;SDS011;9260;49.998;19.880;2023-04-23T13:51:37;215.70;;;128.10;;
18267;SDS011;9260;49.998;19.880;2023-04-23T14:01:41;214.05;;;122.75;;
18267;SDS011;9260;49.998;19.880;2023-04-23T14:11:46;214.38;;;121.82;;
18267;SDS011;9260;49.998;19.880;2023-04-23T14:21:49;217.18;;;120.47;;
18267;SDS011;9260;49.998;19.880;2023-04-23T14:31:54;213.82;;;114.47;;
18267;SDS011;9260;49.998;19.880;2023-04-23T14:41:58;226.73;;;125.80;;
18267;SDS011;9260;49.998;19.880;2023-04-23T14:52:03;221.18;;;121.47;;
18267;SDS011;9260;49.998;19.880;2023-04-23T15:02:07;225.07;;;121.72;;
18267;SDS011;9260;49.998;19.880;2023-04-23T15:12:29;217.05;;;116.55;;
18267;SDS011;9260;49.998;19.880;2023-04-23T15:22:45;215.73;;;115.15;;
18267;SDS011;9260;49.998;19.880;2023-04-23T15:32:50;225.18;;;116.50;;
18267;SDS011;9260;49.998;19.880;2023-04-23T15:42:55;215.05;;;114.25;;
18267;SDS011;9260;49.998;19.880;2023-04-23T15:53:01;213.93;;;112.82;;
18267;SDS011;9260;49.998;19.880;2023-04-23T16:03:07;215.15;;;110.05;;
18267;SDS011;9260;49.998;19.880;2023-04-23T16:13:12;214.83;;;109.67;;
18267;SDS011;9260;49.998;19.880;2023-04-23T16:23:16;218.53;;;111.47;;
18267;SDS011;9260;49.998;19.880;2023-04-23T16:33:21;216.47;;;113.20;;
18267;SDS011;9260;49.998;19.880;2023-04-23T16:43:27;217.97;;;110.90;;
18267;SDS011;9260;49.998;19.880;2023-04-23T16:53:33;224.80;;;111.03;;
18267;SDS011;9260;49.998;19.880;2023-04-23T17:03:36;236.37;;;108.00;;
18267;SDS011;9260;49.998;19.880;2023-04-23T17:13:41;234.63;;;111.90;;
18267;SDS011;9260;49.998;19.880;2023-04-23T17:23:45;223.33;;;103.20;;
18267;SDS011;9260;49.998;19.880;2023-04-23T17:33:50;227.20;;;106.67;;
18267;SDS011;9260;49.998;19.880;2023-04-23T17:43:55;226.60;;;102.47;;
18267;SDS011;9260;49.998;19.880;2023-04-23T17:54:00;223.73;;;99.33;;
18267;SDS011;9260;49.998;19.880;2023-04-23T18:04:05;228.87;;;101.73;;
18267;SDS011;9260;49.998;19.880;2023-04-23T18:14:12;230.07;;;102.53;;
18267;SDS011;9260;49.998;19.880;2023-04-23T18:24:15;231.40;;;102.03;;
18267;SDS011;9260;49.998;19.880;2023-04-23T18:34:21;228.13;;;99.00;;
18267;SDS011;9260;49.998;19.880;2023-04-23T18:44:25;229.63;;;99.30;;
18267;SDS011;9260;49.998;19.880;2023-04-23T18:54:30;234.40;;;107.40;;
18267;SDS011;9260;49.998;19.880;2023-04-23T19:04:34;227.07;;;98.97;;
18267;SDS011;9260;49.998;19.880;2023-04-23T19:14:40;236.57;;;109.93;;
18267;SDS011;9260;49.998;19.880;2023-04-23T19:24:46;231.27;;;100.17;;
18267;SDS011;9260;49.998;19.880;2023-04-23T19:34:51;224.10;;;98.03;;
18267;SDS011;9260;49.998;19.880;2023-04-23T19:44:54;230.50;;;99.47;;
18267;SDS011;9260;49.998;19.880;2023-04-23T19:54:59;225.37;;;97.13;;
18267;SDS011;9260;49.998;19.880;2023-04-23T20:05:03;228.47;;;101.87;;
18267;SDS011;9260;49.998;19.880;2023-04-23T20:15:11;224.87;;;97.57;;
18267;SDS011;9260;49.998;19.880;2023-04-23T20:25:14;223.97;;;95.73;;
18267;SDS011;9260;49.998;19.880;2023-04-23T20:35:22;224.97;;;95.53;;
18267;SDS011;9260;49.998;19.880;2023-04-23T20:45:26;218.80;;;94.20;;
18267;SDS011;9260;49.998;19.880;2023-04-23T20:55:31;217.03;;;91.93;;
18267;SDS011;9260;49.998;19.880;2023-04-23T21:05:34;217.80;;;91.17;;
18267;SDS011;9260;49.998;19.880;2023-04-23T21:15:42;222.57;;;91.73;;
18267;SDS011;9260;49.998;19.880;2023-04-23T21:25:45;219.07;;;89.37;;
18267;SDS011;9260;49.998;19.880;2023-04-23T21:35:51;216.70;;;90.30;;
18267;SDS011;9260;49.998;19.880;2023-04-23T21:45:55;219.97;;;91.77;;
18267;SDS011;9260;49.998;19.880;2023-04-23T21:56:00;224.43;;;91.50;;
18267;SDS011;9260;49.998;19.880;2023-04-23T22:06:03;217.13;;;89.90;;
18267;SDS011;9260;49.998;19.880;2023-04-23T22:16:09;232.33;;;91.60;;
18267;SDS011;9260;49.998;19.880;2023-04-23T22:26:28;226.20;;;93.90;;
18267;SDS011;9260;49.998;19.880;2023-04-23T22:36:35;229.97;;;93.03;;
18267;SDS011;9260;49.998;19.880;2023-04-23T22:46:40;230.17;;;90.53;;
18267;SDS011;9260;49.998;19.880;2023-04-23T22:56:45;224.20;;;91.73;;
18267;SDS011;9260;49.998;19.880;2023-04-23T23:06:49;221.90;;;91.60;;
18267;SDS011;9260;49.998;19.880;2023-04-23T23:16:53;223.33;;;90.80;;
18267;SDS011;9260;49.998;19.880;2023-04-23T23:26:57;220.47;;;90.37;;
18267;SDS011;9260;49.998;19.880;2023-04-23T23:37:03;223.63;;;89.20;;
18267;SDS011;9260;49.998;19.880;2023-04-23T23:47:06;221.20;;;89.67;;
18267;SDS011;9260;49.998;19.880;2023-04-23T23:57:11;214.80;;;86.73;;
